createdAt,value
2023-05-21T00:01:40.151Z,11.18
2023-05-21T00:04:07.127Z,9.65
2023-05-21T00:06:35.171Z,9.43
2023-05-21T00:09:05.437Z,10.80
2023-05-21T00:11:32.881Z,9.60
2023-05-21T00:14:01.316Z,9.50
2023-05-21T00:16:28.297Z,8.05
2023-05-21T00:18:55.266Z,8.60
2023-05-21T00:21:22.062Z,9.68
2023-05-21T00:23:49.467Z,8.95
2023-05-21T00:26:17.296Z,9.63
2023-05-21T00:28:45.072Z,11.73
2023-05-21T00:31:13.342Z,9.27
2023-05-21T00:33:40.080Z,9.40
2023-05-21T00:36:07.163Z,12.43
2023-05-21T00:38:34.380Z,8.68
2023-05-21T00:41:02.082Z,8.10
2023-05-21T00:43:29.060Z,10.15
2023-05-21T00:45:56.312Z,9.23
2023-05-21T00:48:24.918Z,8.95
2023-05-21T00:50:52.096Z,11.45
2023-05-21T00:53:19.254Z,10.32
2023-05-21T00:55:46.479Z,9.00
2023-05-21T00:58:14.010Z,11.43
2023-05-21T01:00:40.994Z,15.18
2023-05-21T01:03:08.136Z,10.10
2023-05-21T01:05:36.966Z,8.07
2023-05-21T01:08:04.864Z,9.27
2023-05-21T01:10:31.816Z,16.65
2023-05-21T01:13:00.268Z,9.63
2023-05-21T01:15:27.774Z,10.88
2023-05-21T01:17:55.902Z,9.85
2023-05-21T01:20:24.445Z,8.40
2023-05-21T01:22:54.644Z,8.13
2023-05-21T01:25:22.381Z,9.93
2023-05-21T01:27:49.636Z,10.02
2023-05-21T01:30:18.029Z,10.27
2023-05-21T01:32:49.256Z,10.40
2023-05-21T01:35:21.723Z,9.75
2023-05-21T01:37:53.206Z,8.32
2023-05-21T01:40:26.325Z,9.70
2023-05-21T01:42:53.640Z,9.05
2023-05-21T01:45:23.913Z,11.13
2023-05-21T01:47:54.295Z,8.57
2023-05-21T01:50:23.652Z,8.65
2023-05-21T01:52:51.786Z,9.45
2023-05-21T01:55:19.253Z,8.52
2023-05-21T01:57:48.119Z,8.20
2023-05-21T02:00:15.645Z,8.57
2023-05-21T02:02:42.492Z,8.75
2023-05-21T02:05:10.082Z,8.95
2023-05-21T02:07:36.788Z,8.10
2023-05-21T02:10:04.198Z,9.38
2023-05-21T02:12:31.422Z,11.10
2023-05-21T02:14:59.615Z,7.68
2023-05-21T02:17:26.520Z,9.00
2023-05-21T02:19:53.635Z,10.18
2023-05-21T02:22:20.460Z,9.32
2023-05-21T02:24:47.361Z,9.00
2023-05-21T02:27:14.417Z,10.77
2023-05-21T02:29:41.259Z,9.15
2023-05-21T02:32:11.073Z,11.43
2023-05-21T02:34:38.084Z,9.02
2023-05-21T02:37:05.808Z,9.32
2023-05-21T02:39:33.154Z,13.13
2023-05-21T02:42:00.324Z,10.25
2023-05-21T02:44:27.388Z,10.55
2023-05-21T02:46:54.356Z,9.90
2023-05-21T02:49:23.031Z,9.93
2023-05-21T02:51:50.133Z,9.65
2023-05-21T02:54:16.968Z,9.75
2023-05-21T02:56:44.147Z,8.48
2023-05-21T02:59:10.915Z,9.85
2023-05-21T03:01:38.016Z,8.43
2023-05-21T03:04:05.063Z,10.52
2023-05-21T03:06:33.235Z,11.07
2023-05-21T03:09:03.239Z,9.88
2023-05-21T03:11:30.078Z,9.82
2023-05-21T03:13:58.881Z,11.32
2023-05-21T03:16:25.903Z,12.82
2023-05-21T03:18:52.949Z,10.35
2023-05-21T03:21:19.823Z,10.05
2023-05-21T03:23:48.101Z,11.02
2023-05-21T03:26:14.893Z,9.95
2023-05-21T03:28:42.956Z,9.80
2023-05-21T03:31:09.864Z,9.35
2023-05-21T03:36:24.477Z,8.02
2023-05-21T03:38:53.534Z,10.13
2023-05-21T03:41:21.072Z,21.25
2023-05-21T03:43:52.274Z,8.95
2023-05-21T03:46:21.915Z,13.80
2023-05-21T03:51:42.561Z,9.95
2023-05-21T03:54:14.261Z,9.70
2023-05-21T03:56:41.158Z,9.98
2023-05-21T03:59:08.578Z,10.63
2023-05-21T04:01:36.189Z,9.90
2023-05-21T04:04:03.893Z,10.45
2023-05-21T04:06:31.339Z,10.40
2023-05-21T04:08:58.606Z,10.65
2023-05-21T04:11:26.961Z,8.55
2023-05-21T04:13:53.832Z,12.38
2023-05-21T04:16:20.623Z,9.05
2023-05-21T04:18:47.661Z,9.73
2023-05-21T04:21:16.000Z,11.82
2023-05-21T04:23:43.864Z,8.80
2023-05-21T04:26:21.059Z,12.82
2023-05-21T04:28:49.255Z,11.52
2023-05-21T04:31:16.980Z,8.77
2023-05-21T04:33:44.182Z,8.63
2023-05-21T04:36:11.197Z,9.32
2023-05-21T04:38:38.433Z,8.98
2023-05-21T04:41:06.096Z,8.90
2023-05-21T04:43:33.074Z,9.57
2023-05-21T04:46:02.696Z,8.77
2023-05-21T04:48:29.616Z,9.63
2023-05-21T04:50:56.402Z,11.02
2023-05-21T04:53:23.499Z,11.63
2023-05-21T04:55:50.711Z,10.10
2023-05-21T04:58:17.692Z,27.40
2023-05-21T05:00:45.805Z,9.57
2023-05-21T05:03:14.729Z,10.02
2023-05-21T05:05:43.508Z,10.18
2023-05-21T05:08:10.338Z,10.38
2023-05-21T05:10:37.123Z,16.40
2023-05-21T05:13:04.240Z,11.05
2023-05-21T05:15:31.429Z,10.50
2023-05-21T05:17:58.443Z,11.43
2023-05-21T05:20:26.721Z,10.02
2023-05-21T05:22:53.470Z,10.07
2023-05-21T05:25:20.496Z,10.38
2023-05-21T05:27:47.197Z,13.20
2023-05-21T05:30:14.085Z,9.80
2023-05-21T05:32:41.215Z,13.57
2023-05-21T05:35:09.164Z,9.38
2023-05-21T05:37:37.288Z,9.60
2023-05-21T05:40:07.016Z,10.95
2023-05-21T05:42:34.801Z,11.80
2023-05-21T05:45:10.310Z,12.60
2023-05-21T05:47:37.501Z,10.52
2023-05-21T05:50:05.735Z,10.27
2023-05-21T05:52:32.613Z,10.82
2023-05-21T05:55:00.840Z,10.90
2023-05-21T05:57:27.712Z,12.77
2023-05-21T05:59:59.103Z,9.93
2023-05-21T06:02:27.653Z,9.32
2023-05-21T06:04:54.533Z,10.77
2023-05-21T06:07:21.321Z,10.82
2023-05-21T06:09:48.054Z,11.93
2023-05-21T06:12:16.350Z,9.50
2023-05-21T06:14:45.161Z,13.65
2023-05-21T06:17:12.342Z,10.40
2023-05-21T06:19:39.627Z,9.75
2023-05-21T06:22:06.547Z,11.05
2023-05-21T06:24:33.329Z,12.48
2023-05-21T06:27:00.505Z,10.68
2023-05-21T06:29:29.519Z,14.43
2023-05-21T06:31:56.513Z,12.07
2023-05-21T06:34:23.333Z,12.38
2023-05-21T06:36:51.572Z,12.45
2023-05-21T06:39:18.308Z,10.90
2023-05-21T06:41:45.457Z,11.98
2023-05-21T06:44:41.903Z,9.07
2023-05-21T06:47:14.704Z,11.95
2023-05-21T06:49:41.858Z,12.00
2023-05-21T06:52:08.515Z,7.43
2023-05-21T06:54:35.808Z,10.80
2023-05-21T06:57:03.039Z,11.43
2023-05-21T06:59:31.387Z,9.93
2023-05-21T07:02:00.173Z,8.82
2023-05-21T07:04:28.591Z,12.52
2023-05-21T07:06:55.745Z,12.32
2023-05-21T07:09:24.363Z,10.43
2023-05-21T07:11:51.900Z,9.68
2023-05-21T07:14:19.081Z,14.65
2023-05-21T07:16:45.990Z,9.63
2023-05-21T07:19:15.154Z,10.27
2023-05-21T07:21:43.051Z,17.25
2023-05-21T07:24:09.883Z,10.40
2023-05-21T07:26:39.368Z,10.60
2023-05-21T07:29:06.350Z,9.77
2023-05-21T07:31:33.527Z,9.98
2023-05-21T07:34:01.511Z,9.77
2023-05-21T07:36:32.551Z,11.90
2023-05-21T07:38:59.884Z,10.10
2023-05-21T07:41:27.201Z,11.88
2023-05-21T07:43:53.972Z,11.63
2023-05-21T07:46:20.996Z,16.77
2023-05-21T07:48:51.258Z,9.68
2023-05-21T07:51:18.152Z,11.18
2023-05-21T07:53:48.009Z,9.35
2023-05-21T07:56:17.076Z,9.02
2023-05-21T07:58:43.934Z,8.27
2023-05-21T08:01:10.805Z,7.93
2023-05-21T08:03:38.015Z,8.20
2023-05-21T08:06:04.926Z,9.73
2023-05-21T08:08:32.786Z,9.35
2023-05-21T08:11:00.979Z,11.52
2023-05-21T08:13:28.494Z,9.30
2023-05-21T08:15:55.317Z,10.25
2023-05-21T08:18:22.913Z,8.27
2023-05-21T08:20:51.025Z,11.45
2023-05-21T08:23:19.918Z,12.45
2023-05-21T08:25:51.131Z,8.50
2023-05-21T08:28:19.753Z,9.43
2023-05-21T08:30:46.592Z,8.63
2023-05-21T08:33:13.435Z,10.05
2023-05-21T08:35:40.503Z,12.75
2023-05-21T08:38:17.292Z,11.52
2023-05-21T08:41:06.357Z,9.70
2023-05-21T08:43:37.202Z,11.93
2023-05-21T08:46:10.055Z,9.30
2023-05-21T08:48:40.800Z,8.65
2023-05-21T08:51:08.046Z,11.07
2023-05-21T08:53:43.735Z,8.32
2023-05-21T08:56:12.314Z,10.25
2023-05-21T08:58:49.296Z,7.80
2023-05-21T09:01:19.931Z,11.43
2023-05-21T09:03:54.484Z,10.68
2023-05-21T09:06:27.570Z,9.25
2023-05-21T09:09:02.264Z,10.70
2023-05-21T09:11:37.130Z,10.07
2023-05-21T09:14:06.346Z,8.70
2023-05-21T09:16:47.373Z,8.20
2023-05-21T09:19:14.802Z,7.85
2023-05-21T09:21:41.975Z,8.95
2023-05-21T09:24:14.912Z,8.55
2023-05-21T09:26:43.693Z,10.50
2023-05-21T09:29:13.135Z,9.43
2023-05-21T09:31:43.405Z,8.45
2023-05-21T09:34:11.978Z,10.32
2023-05-21T09:36:38.840Z,9.05
2023-05-21T09:39:05.687Z,9.27
2023-05-21T09:41:33.145Z,10.50
2023-05-21T09:44:01.054Z,8.40
2023-05-21T09:46:38.177Z,10.32
2023-05-21T09:49:05.139Z,7.90
2023-05-21T09:51:32.246Z,10.73
2023-05-21T09:53:59.313Z,7.93
2023-05-21T09:56:27.241Z,7.30
2023-05-21T09:58:54.920Z,19.25
2023-05-21T10:01:22.149Z,7.35
2023-05-21T10:03:55.047Z,8.48
2023-05-21T10:06:24.704Z,11.65
2023-05-21T10:08:54.594Z,7.13
2023-05-21T10:11:22.838Z,9.95
2023-05-21T10:13:56.138Z,12.32
2023-05-21T10:16:23.797Z,9.30
2023-05-21T10:18:54.338Z,7.38
2023-05-21T10:21:22.063Z,9.75
2023-05-21T10:23:49.549Z,7.72
2023-05-21T10:26:17.240Z,9.10
2023-05-21T10:28:44.487Z,8.10
2023-05-21T10:31:12.041Z,8.40
2023-05-21T10:33:38.916Z,10.82
2023-05-21T10:36:08.614Z,7.38
2023-05-21T10:38:37.494Z,13.10
2023-05-21T10:41:05.834Z,7.00
2023-05-21T10:43:49.371Z,8.20
2023-05-21T10:46:41.906Z,9.05
2023-05-21T10:49:24.693Z,32.17
2023-05-21T10:52:04.883Z,8.38
2023-05-21T10:55:22.537Z,9.65
2023-05-21T10:58:20.830Z,7.82
2023-05-21T11:00:48.133Z,7.60
2023-05-21T11:03:15.748Z,7.63
2023-05-21T11:05:52.738Z,6.35
2023-05-21T11:08:24.618Z,7.75
2023-05-21T11:10:55.495Z,8.75
2023-05-21T11:13:22.614Z,12.63
2023-05-21T11:16:08.020Z,8.57
2023-05-21T11:18:57.685Z,8.50
2023-05-21T11:21:24.948Z,11.93
2023-05-21T11:23:54.442Z,10.80
2023-05-21T11:26:23.608Z,11.15
2023-05-21T11:28:51.354Z,10.55
2023-05-21T11:31:25.253Z,9.65
2023-05-21T11:34:12.032Z,7.78
2023-05-21T11:36:39.903Z,8.20
2023-05-21T11:39:15.033Z,11.27
2023-05-21T11:41:52.766Z,56.35
2023-05-21T11:47:19.918Z,11.40
2023-05-21T11:49:47.661Z,58.17
2023-05-21T11:52:15.976Z,13.80
2023-05-21T11:54:50.810Z,11.43
2023-05-21T11:57:18.537Z,32.10
2023-05-21T11:59:46.427Z,23.52
2023-05-21T12:02:15.623Z,21.73
2023-05-21T12:04:42.505Z,29.10
2023-05-21T12:07:12.187Z,19.48
2023-05-21T12:12:08.746Z,131.13
2023-05-21T12:14:36.001Z,91.07
2023-05-21T12:17:03.705Z,57.63
2023-05-21T12:19:33.481Z,58.03
2023-05-21T12:22:02.180Z,70.60
2023-05-21T12:24:29.498Z,12.57
2023-05-21T12:26:58.364Z,13.65
2023-05-21T12:29:27.992Z,7.13
2023-05-21T12:34:45.058Z,7.03
2023-05-21T12:37:15.386Z,7.70
2023-05-21T12:39:44.560Z,22.05
2023-05-21T12:42:14.334Z,10.45
2023-05-21T12:44:45.278Z,8.63
2023-05-21T12:47:12.895Z,10.05
2023-05-21T12:52:26.726Z,8.00
2023-05-21T12:54:55.563Z,6.85
2023-05-21T12:57:23.767Z,9.32
2023-05-21T13:00:11.311Z,10.10
2023-05-21T13:02:45.100Z,5.85
2023-05-21T13:05:16.893Z,8.75
2023-05-21T13:07:44.708Z,8.23
2023-05-21T13:10:11.521Z,6.43
2023-05-21T13:12:38.637Z,17.23
2023-05-21T13:15:08.037Z,8.82
2023-05-21T13:17:34.877Z,8.43
2023-05-21T13:20:07.766Z,9.43
2023-05-21T13:22:35.634Z,10.82
2023-05-21T13:25:03.726Z,12.48
2023-05-21T13:27:30.510Z,11.00
2023-05-21T13:29:57.384Z,8.52
2023-05-21T13:32:26.315Z,7.03
2023-05-21T13:34:52.993Z,10.63
2023-05-21T13:37:19.795Z,8.10
2023-05-21T13:39:46.612Z,10.43
2023-05-21T13:42:13.573Z,7.90
2023-05-21T13:44:40.331Z,9.90
2023-05-21T13:47:07.848Z,9.23
2023-05-21T13:49:36.844Z,7.30
2023-05-21T13:52:04.418Z,6.93
2023-05-21T13:54:32.056Z,8.18
2023-05-21T13:56:59.458Z,8.05
2023-05-21T13:59:26.335Z,7.65
2023-05-21T14:01:53.383Z,9.55
2023-05-21T14:04:21.059Z,6.78
2023-05-21T14:06:50.096Z,7.35
2023-05-21T14:09:16.993Z,7.32
2023-05-21T14:11:43.847Z,9.02
2023-05-21T14:14:11.000Z,8.18
2023-05-21T14:16:38.094Z,16.90
2023-05-21T14:19:04.945Z,8.70
2023-05-21T14:21:32.005Z,10.05
2023-05-21T14:24:00.203Z,16.98
2023-05-21T14:26:26.956Z,8.88
2023-05-21T14:28:53.928Z,7.07
2023-05-21T14:31:20.700Z,14.02
2023-05-21T14:33:50.618Z,7.85
2023-05-21T14:36:17.664Z,6.53
2023-05-21T14:38:44.316Z,7.18
2023-05-21T14:41:12.459Z,9.27
2023-05-21T14:43:39.199Z,7.75
2023-05-21T14:46:06.161Z,8.48
2023-05-21T14:48:33.758Z,10.07
2023-05-21T14:51:00.566Z,10.20
2023-05-21T14:53:27.478Z,9.27
2023-05-21T14:55:54.221Z,5.88
2023-05-21T14:58:22.491Z,6.90
2023-05-21T15:00:49.180Z,12.15
2023-05-21T15:03:15.941Z,11.27
2023-05-21T15:05:42.736Z,9.82
2023-05-21T15:08:09.495Z,8.20
2023-05-21T15:10:36.287Z,8.32
2023-05-21T15:13:03.362Z,8.20
2023-05-21T15:15:31.599Z,7.55
2023-05-21T15:17:58.982Z,12.13
2023-05-21T15:20:25.776Z,8.85
2023-05-21T15:22:59.066Z,9.48
2023-05-21T15:25:35.747Z,9.13
2023-05-21T15:30:46.094Z,7.60
2023-05-21T15:33:13.579Z,7.63
2023-05-21T15:35:40.737Z,15.77
2023-05-21T15:38:08.132Z,12.18
2023-05-21T15:40:35.473Z,13.70
2023-05-21T15:43:04.065Z,10.57
2023-05-21T15:45:31.034Z,11.57
2023-05-21T15:47:59.489Z,10.68
2023-05-21T15:50:26.453Z,9.63
2023-05-21T15:52:54.143Z,12.25
2023-05-21T15:55:21.647Z,13.50
2023-05-21T15:57:49.203Z,8.55
2023-05-21T16:00:16.715Z,10.00
2023-05-21T16:02:45.663Z,10.98
2023-05-21T16:05:13.917Z,9.23
2023-05-21T16:07:41.017Z,9.57
2023-05-21T16:10:10.514Z,14.57
2023-05-21T16:12:37.395Z,11.82
2023-05-21T16:15:05.521Z,12.07
2023-05-21T16:17:36.210Z,12.50
2023-05-21T16:20:03.135Z,11.85
2023-05-21T16:22:31.310Z,10.30
2023-05-21T16:24:58.235Z,14.05
2023-05-21T16:27:25.120Z,12.48
2023-05-21T16:29:52.207Z,11.73
2023-05-21T16:32:19.257Z,11.25
2023-05-21T16:34:46.108Z,13.40
2023-05-21T16:37:13.326Z,13.35
2023-05-21T16:39:48.898Z,13.32
2023-05-21T16:42:17.285Z,17.02
2023-05-21T16:44:44.736Z,12.00
2023-05-21T16:47:11.550Z,14.55
2023-05-21T16:49:38.388Z,15.23
2023-05-21T16:52:16.509Z,19.25
2023-05-21T16:54:45.850Z,14.57
2023-05-21T16:59:39.095Z,13.27
2023-05-21T17:02:06.032Z,15.38
2023-05-21T17:04:33.007Z,22.58
2023-05-21T17:06:59.985Z,19.83
2023-05-21T17:09:29.284Z,11.73
2023-05-21T17:14:33.677Z,15.32
2023-05-21T17:17:01.508Z,12.77
2023-05-21T17:19:28.385Z,14.68
2023-05-21T17:21:55.724Z,13.27
2023-05-21T17:24:22.436Z,11.77
2023-05-21T17:29:32.921Z,13.00
2023-05-21T17:32:01.325Z,12.52
2023-05-21T17:34:28.549Z,11.73
2023-05-21T17:37:03.254Z,15.82
2023-05-21T17:39:34.182Z,15.32
2023-05-21T17:42:04.371Z,14.88
2023-05-21T17:45:02.521Z,16.95
2023-05-21T17:50:14.170Z,15.80
2023-05-21T17:52:41.046Z,23.75
2023-05-21T17:55:11.082Z,14.15
2023-05-21T17:57:41.511Z,16.92
2023-05-21T18:00:09.401Z,13.48
2023-05-21T18:02:40.298Z,15.63
2023-05-21T18:05:07.843Z,19.02
2023-05-21T18:07:35.834Z,13.82
2023-05-21T18:10:03.046Z,15.05
2023-05-21T18:12:33.885Z,15.75
2023-05-21T18:15:00.997Z,18.02
2023-05-21T18:17:27.861Z,16.02
2023-05-21T18:19:56.631Z,15.35
2023-05-21T18:22:23.521Z,20.40
2023-05-21T18:24:53.473Z,16.73
2023-05-21T18:27:20.184Z,18.73
2023-05-21T18:29:47.240Z,18.40
2023-05-21T18:32:14.033Z,21.13
2023-05-21T18:34:40.803Z,16.25
2023-05-21T18:37:08.978Z,20.80
2023-05-21T18:39:35.858Z,19.05
2023-05-21T18:42:13.059Z,14.63
2023-05-21T18:44:40.593Z,15.50
2023-05-21T18:47:07.738Z,16.73
2023-05-21T18:49:34.808Z,16.35
2023-05-21T18:52:01.714Z,18.15
2023-05-21T18:54:30.012Z,15.13
2023-05-21T18:56:56.946Z,22.40
2023-05-21T18:59:23.904Z,21.63
2023-05-21T19:01:50.827Z,16.63
2023-05-21T19:04:17.747Z,18.58
2023-05-21T19:06:44.511Z,21.85
2023-05-21T19:09:11.621Z,14.43
2023-05-21T19:11:39.965Z,19.30
2023-05-21T19:14:06.846Z,19.02
2023-05-21T19:16:33.842Z,18.83
2023-05-21T19:19:00.795Z,19.23
2023-05-21T19:21:27.902Z,19.70
2023-05-21T19:23:54.719Z,21.13
2023-05-21T19:26:21.845Z,21.73
2023-05-21T19:28:50.254Z,22.60
2023-05-21T19:31:17.457Z,21.77
2023-05-21T19:33:44.218Z,25.75
2023-05-21T19:36:13.080Z,22.35
2023-05-21T19:41:13.376Z,22.75
2023-05-21T19:43:40.223Z,16.13
2023-05-21T19:46:08.484Z,25.63
2023-05-21T19:48:35.371Z,29.40
2023-05-21T19:51:02.810Z,23.38
2023-05-21T19:53:29.644Z,28.90
2023-05-21T19:55:56.758Z,27.05
2023-05-21T19:58:23.746Z,30.40
2023-05-21T20:00:50.438Z,25.85
2023-05-21T20:03:18.687Z,31.30
2023-05-21T20:05:45.378Z,27.33
2023-05-21T20:08:12.236Z,38.20
2023-05-21T20:10:39.346Z,25.50
2023-05-21T20:13:06.391Z,33.30
2023-05-21T20:15:33.235Z,28.50
2023-05-21T20:18:00.089Z,29.08
2023-05-21T20:20:30.718Z,35.92
2023-05-21T20:22:57.422Z,30.27
2023-05-21T20:25:24.459Z,29.73
2023-05-21T20:27:51.227Z,31.02
2023-05-21T20:30:18.155Z,31.65
2023-05-21T20:32:45.041Z,29.85
2023-05-21T20:35:12.445Z,25.77
2023-05-21T20:37:40.645Z,30.05
2023-05-21T20:40:09.107Z,37.75
2023-05-21T20:42:35.919Z,30.45
2023-05-21T20:45:02.789Z,30.88
2023-05-21T20:47:29.561Z,28.42
2023-05-21T20:49:56.574Z,31.20
2023-05-21T20:52:23.798Z,31.92
2023-05-21T20:54:52.383Z,32.40
2023-05-21T20:57:19.266Z,31.25
2023-05-21T20:59:45.958Z,34.50
2023-05-21T21:02:12.945Z,39.90
2023-05-21T21:04:42.755Z,32.28
2023-05-21T21:07:09.543Z,33.63
2023-05-21T21:09:36.554Z,35.63
2023-05-21T21:12:21.273Z,37.63
2023-05-21T21:14:59.485Z,36.15
2023-05-21T21:17:26.470Z,30.92
2023-05-21T21:19:53.392Z,35.45
2023-05-21T21:22:20.134Z,36.65
2023-05-21T21:24:47.396Z,33.85
2023-05-21T21:27:15.518Z,39.63
2023-05-21T21:29:42.611Z,37.65
2023-05-21T21:32:09.764Z,38.10
2023-05-21T21:34:36.503Z,34.38
2023-05-21T21:37:03.756Z,36.33
2023-05-21T21:39:30.557Z,29.58
2023-05-21T21:41:57.537Z,37.50
2023-05-21T21:44:25.738Z,36.50
2023-05-21T21:46:52.969Z,32.47
2023-05-21T21:49:19.738Z,32.33
2023-05-21T21:51:46.666Z,32.78
2023-05-21T21:54:13.554Z,36.10
2023-05-21T21:56:41.530Z,38.75
2023-05-21T21:59:08.364Z,36.83
2023-05-21T22:01:36.586Z,31.48
2023-05-21T22:04:03.850Z,33.42
2023-05-21T22:06:30.578Z,43.83
2023-05-21T22:08:57.402Z,31.73
2023-05-21T22:11:24.291Z,32.08
2023-05-21T22:13:51.024Z,35.95
2023-05-21T22:16:17.767Z,33.35
2023-05-21T22:18:46.092Z,31.45
2023-05-21T22:21:12.845Z,34.00
2023-05-21T22:23:39.696Z,37.47
2023-05-21T22:26:06.618Z,32.60
2023-05-21T22:28:33.605Z,39.58
2023-05-21T22:31:00.448Z,33.97
2023-05-21T22:33:27.298Z,26.13
2023-05-21T22:35:55.442Z,30.67
2023-05-21T22:38:22.183Z,28.42
2023-05-21T22:40:49.094Z,31.30
2023-05-21T22:43:15.868Z,30.90
2023-05-21T22:45:42.690Z,34.70
2023-05-21T22:48:09.791Z,35.95
2023-05-21T22:50:36.977Z,33.75
2023-05-21T22:53:05.304Z,37.20
2023-05-21T22:55:32.208Z,29.83
2023-05-21T22:57:59.050Z,33.08
2023-05-21T23:00:28.336Z,35.42
2023-05-21T23:02:55.256Z,40.58
2023-05-21T23:05:22.514Z,36.92
2023-05-21T23:07:49.475Z,38.97
2023-05-21T23:10:17.678Z,40.72
2023-05-21T23:12:44.454Z,35.45
2023-05-21T23:15:11.600Z,41.63
2023-05-21T23:17:38.686Z,36.67
2023-05-21T23:20:06.925Z,41.53
2023-05-21T23:22:33.630Z,33.58
2023-05-21T23:25:00.588Z,37.17
2023-05-21T23:27:28.759Z,41.45
2023-05-21T23:29:55.545Z,38.15
2023-05-21T23:32:23.023Z,44.47
2023-05-21T23:34:49.886Z,35.63
2023-05-21T23:37:16.684Z,43.85
2023-05-21T23:39:43.404Z,42.28
2023-05-21T23:42:10.281Z,46.20
2023-05-21T23:44:38.376Z,41.65
2023-05-21T23:47:05.315Z,41.85
2023-05-21T23:49:32.244Z,47.75
2023-05-21T23:51:59.241Z,51.00
2023-05-21T23:54:25.966Z,49.03
2023-05-21T23:56:52.772Z,41.90
2023-05-21T23:59:19.865Z,53.63
